createdAt,value
2022-08-29T00:00:40.675Z,36.38
2022-08-29T00:01:40.668Z,38.42
2022-08-29T00:02:40.722Z,45.42
2022-08-29T00:03:40.910Z,50.94
2022-08-29T00:04:40.697Z,47.61
2022-08-29T00:05:42.433Z,36.47
2022-08-29T00:06:40.620Z,40.11
2022-08-29T00:07:40.618Z,51.55
2022-08-29T00:08:40.609Z,44.79
2022-08-29T00:09:40.623Z,54.62
2022-08-29T00:10:40.595Z,60.91
2022-08-29T00:11:45.312Z,56.41
2022-08-29T00:12:41.579Z,44.42
2022-08-29T00:13:40.571Z,50.86
2022-08-29T00:14:40.590Z,50.55
2022-08-29T00:15:44.471Z,54.31
2022-08-29T00:16:40.771Z,47.63
2022-08-29T00:17:40.536Z,50.74
2022-08-29T00:18:40.535Z,39.69
2022-08-29T00:19:40.551Z,43.42
2022-08-29T00:20:40.525Z,38.14
2022-08-29T00:21:40.512Z,42.30
2022-08-29T00:22:40.501Z,36.79
2022-08-29T00:23:40.501Z,45.04
2022-08-29T00:24:40.515Z,45.51
2022-08-29T00:25:40.474Z,37.63
2022-08-29T00:26:40.467Z,53.35
2022-08-29T00:27:40.461Z,53.67
2022-08-29T00:28:40.452Z,60.36
2022-08-29T00:29:40.442Z,51.87
2022-08-29T00:30:40.465Z,37.76
2022-08-29T00:31:40.489Z,38.14
2022-08-29T00:32:40.427Z,46.74
2022-08-29T00:33:40.415Z,44.93
2022-08-29T00:34:40.401Z,42.33
2022-08-29T00:35:40.595Z,57.96
2022-08-29T00:36:40.396Z,58.11
2022-08-29T00:37:40.379Z,45.41
2022-08-29T00:38:41.840Z,51.62
2022-08-29T00:39:40.368Z,40.32
2022-08-29T00:40:40.467Z,45.06
2022-08-29T00:41:40.351Z,52.75
2022-08-29T00:42:40.346Z,40.70
2022-08-29T00:43:40.334Z,44.37
2022-08-29T00:44:40.330Z,56.86
2022-08-29T00:45:40.380Z,55.99
2022-08-29T00:46:40.317Z,48.85
2022-08-29T00:47:40.307Z,42.20
2022-08-29T00:48:40.295Z,44.19
2022-08-29T00:49:40.296Z,47.76
2022-08-29T00:50:40.316Z,43.72
2022-08-29T00:51:40.281Z,48.99
2022-08-29T00:52:40.269Z,52.21
2022-08-29T00:53:40.268Z,43.59
2022-08-29T00:54:40.259Z,64.38
2022-08-29T00:55:40.278Z,60.31
2022-08-29T00:56:40.235Z,45.52
2022-08-29T00:57:40.236Z,50.75
2022-08-29T00:58:40.225Z,52.44
2022-08-29T00:59:40.210Z,43.12
2022-08-29T01:00:40.298Z,39.77
2022-08-29T01:01:40.201Z,46.93
2022-08-29T01:02:40.717Z,46.14
2022-08-29T01:03:43.059Z,50.99
2022-08-29T01:04:40.173Z,62.13
2022-08-29T01:05:40.198Z,48.28
2022-08-29T01:06:40.154Z,52.80
2022-08-29T01:07:40.700Z,63.91
2022-08-29T01:08:40.147Z,45.37
2022-08-29T01:09:40.137Z,54.84
2022-08-29T01:10:40.159Z,41.50
2022-08-29T01:11:40.119Z,42.86
2022-08-29T01:12:40.102Z,51.45
2022-08-29T01:13:40.099Z,49.86
2022-08-29T01:14:40.097Z,51.43
2022-08-29T01:15:40.117Z,40.04
2022-08-29T01:16:40.126Z,49.88
2022-08-29T01:17:40.067Z,58.51
2022-08-29T01:18:40.060Z,58.75
2022-08-29T01:19:40.056Z,56.80
2022-08-29T01:20:40.080Z,54.82
2022-08-29T01:21:40.032Z,56.67
2022-08-29T01:22:41.034Z,55.03
2022-08-29T01:23:40.025Z,56.89
2022-08-29T01:24:40.014Z,53.49
2022-08-29T01:25:40.008Z,55.50
2022-08-29T01:26:40.030Z,52.72
2022-08-29T01:27:39.986Z,48.17
2022-08-29T01:28:39.978Z,47.82
2022-08-29T01:29:39.979Z,43.89
2022-08-29T01:30:39.967Z,51.10
2022-08-29T01:31:57.215Z,43.04
2022-08-29T01:32:40.947Z,56.08
2022-08-29T01:33:39.944Z,48.01
2022-08-29T01:34:39.959Z,53.17
2022-08-29T01:35:39.930Z,39.72
2022-08-29T01:36:39.961Z,50.45
2022-08-29T01:37:39.918Z,63.60
2022-08-29T01:38:39.904Z,52.23
2022-08-29T01:39:39.897Z,48.12
2022-08-29T01:40:39.943Z,50.67
2022-08-29T01:41:39.909Z,50.10
2022-08-29T01:42:39.875Z,43.60
2022-08-29T01:43:39.873Z,51.04
2022-08-29T01:44:39.869Z,50.09
2022-08-29T01:45:39.957Z,52.57
2022-08-29T01:46:39.874Z,42.28
2022-08-29T01:47:39.837Z,39.28
2022-08-29T01:48:39.831Z,44.87
2022-08-29T01:49:40.856Z,51.56
2022-08-29T01:50:39.818Z,49.92
2022-08-29T01:51:39.834Z,57.82
2022-08-29T01:52:39.794Z,55.11
2022-08-29T01:53:39.816Z,57.09
2022-08-29T01:54:39.781Z,57.77
2022-08-29T01:55:39.774Z,62.37
2022-08-29T01:56:39.798Z,61.56
2022-08-29T01:57:39.757Z,59.95
2022-08-29T01:58:39.747Z,58.56
2022-08-29T01:59:39.750Z,58.84
2022-08-29T02:00:39.810Z,55.14
2022-08-29T02:01:39.790Z,58.08
2022-08-29T02:02:40.318Z,58.27
2022-08-29T02:03:39.712Z,49.37
2022-08-29T02:04:39.700Z,52.76
2022-08-29T02:05:39.698Z,51.96
2022-08-29T02:06:39.715Z,49.01
2022-08-29T02:07:39.679Z,48.05
2022-08-29T02:08:39.674Z,55.13
2022-08-29T02:09:39.652Z,61.95
2022-08-29T02:10:41.659Z,54.14
2022-08-29T02:11:39.676Z,60.46
2022-08-29T02:12:39.647Z,56.72
2022-08-29T02:13:39.637Z,54.09
2022-08-29T02:14:39.633Z,57.09
2022-08-29T02:15:39.628Z,58.04
2022-08-29T02:16:39.676Z,58.36
2022-08-29T02:17:39.611Z,49.00
2022-08-29T02:18:39.599Z,55.60
2022-08-29T02:19:39.593Z,55.07
2022-08-29T02:20:39.584Z,51.41
2022-08-29T02:21:39.603Z,53.01
2022-08-29T02:22:39.574Z,58.95
2022-08-29T02:23:39.570Z,54.31
2022-08-29T02:24:39.562Z,54.24
2022-08-29T02:25:39.546Z,57.24
2022-08-29T02:26:39.566Z,58.69
2022-08-29T02:27:39.531Z,59.80
2022-08-29T02:28:39.518Z,52.59
2022-08-29T02:29:39.518Z,55.87
2022-08-29T02:30:39.511Z,55.40
2022-08-29T02:31:39.555Z,59.05
2022-08-29T02:32:39.489Z,53.93
2022-08-29T02:33:39.488Z,57.07
2022-08-29T02:34:39.483Z,59.22
2022-08-29T02:35:42.729Z,61.45
2022-08-29T02:36:41.551Z,54.27
2022-08-29T02:37:39.449Z,62.13
2022-08-29T02:38:39.443Z,59.03
2022-08-29T02:39:39.436Z,48.35
2022-08-29T02:40:39.481Z,50.12
2022-08-29T02:41:39.444Z,54.64
2022-08-29T02:42:39.429Z,59.03
2022-08-29T02:43:39.400Z,62.17
2022-08-29T02:44:39.400Z,59.47
2022-08-29T02:45:39.388Z,54.97
2022-08-29T02:46:39.526Z,55.90
2022-08-29T02:47:39.376Z,56.22
2022-08-29T02:48:39.367Z,54.02
2022-08-29T02:49:39.363Z,55.00
2022-08-29T02:50:39.357Z,53.90
2022-08-29T02:51:39.367Z,56.41
2022-08-29T02:52:39.336Z,51.98
2022-08-29T02:53:39.329Z,56.48
2022-08-29T02:54:39.331Z,60.76
2022-08-29T02:55:39.313Z,50.17
2022-08-29T02:56:39.341Z,61.59
2022-08-29T02:57:39.295Z,58.82
2022-08-29T02:58:39.300Z,61.78
2022-08-29T02:59:39.279Z,58.40
2022-08-29T03:00:39.335Z,61.93
2022-08-29T03:01:39.336Z,58.08
2022-08-29T03:02:39.265Z,57.90
2022-08-29T03:03:39.253Z,56.20
2022-08-29T03:04:39.236Z,57.96
2022-08-29T03:05:40.236Z,61.74
2022-08-29T03:06:39.230Z,60.68
2022-08-29T03:07:39.248Z,59.30
2022-08-29T03:08:39.215Z,57.43
2022-08-29T03:09:39.215Z,59.71
2022-08-29T03:10:39.224Z,62.50
2022-08-29T03:11:39.210Z,56.62
2022-08-29T03:12:39.185Z,55.65
2022-08-29T03:13:39.176Z,55.86
2022-08-29T03:14:39.160Z,57.20
2022-08-29T03:15:39.154Z,58.96
2022-08-29T03:16:39.240Z,48.23
2022-08-29T03:17:39.147Z,57.59
2022-08-29T03:18:39.139Z,59.41
2022-08-29T03:19:39.131Z,58.40
2022-08-29T03:20:39.210Z,60.94
2022-08-29T03:21:39.143Z,59.64
2022-08-29T03:22:39.107Z,59.87
2022-08-29T03:23:39.091Z,58.17
2022-08-29T03:24:39.087Z,59.09
2022-08-29T03:25:39.077Z,59.16
2022-08-29T03:26:39.099Z,58.06
2022-08-29T03:27:39.066Z,57.59
2022-08-29T03:28:39.059Z,59.86
2022-08-29T03:29:39.052Z,62.06
2022-08-29T03:30:39.041Z,57.41
2022-08-29T03:31:39.098Z,61.96
2022-08-29T03:32:39.025Z,62.88
2022-08-29T03:33:39.019Z,58.32
2022-08-29T03:34:39.014Z,55.84
2022-08-29T03:35:39.003Z,60.68
2022-08-29T03:36:39.028Z,62.12
2022-08-29T03:37:38.991Z,62.32
2022-08-29T03:38:38.976Z,62.63
2022-08-29T03:39:38.973Z,64.07
2022-08-29T03:40:39.033Z,60.37
2022-08-29T03:41:38.988Z,63.36
2022-08-29T03:42:38.947Z,61.58
2022-08-29T03:43:38.946Z,65.23
2022-08-29T03:44:38.942Z,62.53
2022-08-29T03:45:38.926Z,62.50
2022-08-29T03:46:38.939Z,62.43
2022-08-29T03:47:38.937Z,61.30
2022-08-29T03:48:38.898Z,61.45
2022-08-29T03:49:38.894Z,62.30
2022-08-29T03:50:38.883Z,61.31
2022-08-29T03:51:38.883Z,62.59
2022-08-29T03:52:38.890Z,58.53
2022-08-29T03:53:38.856Z,61.38
2022-08-29T03:54:38.842Z,67.33
2022-08-29T03:55:38.834Z,61.00
2022-08-29T03:56:38.831Z,61.89
2022-08-29T03:57:38.857Z,61.86
2022-08-29T03:58:38.820Z,58.06
2022-08-29T03:59:38.816Z,58.72
2022-08-29T04:00:38.809Z,57.48
2022-08-29T04:01:38.891Z,60.22
2022-08-29T04:02:38.851Z,57.66
2022-08-29T04:03:38.777Z,59.85
2022-08-29T04:04:38.772Z,59.40
2022-08-29T04:05:38.760Z,62.19
2022-08-29T04:06:38.779Z,60.53
2022-08-29T04:07:38.750Z,61.30
2022-08-29T04:08:38.736Z,60.83
2022-08-29T04:09:38.737Z,63.57
2022-08-29T04:10:38.729Z,60.51
2022-08-29T04:11:38.711Z,59.72
2022-08-29T04:12:38.727Z,64.86
2022-08-29T04:13:38.703Z,61.98
2022-08-29T04:14:38.692Z,60.19
2022-08-29T04:15:38.684Z,63.24
2022-08-29T04:16:38.713Z,65.49
2022-08-29T04:17:53.150Z,65.60
2022-08-29T04:18:39.659Z,62.73
2022-08-29T04:19:38.654Z,61.44
2022-08-29T04:20:38.646Z,62.90
2022-08-29T04:21:38.635Z,60.92
2022-08-29T04:22:38.659Z,59.96
2022-08-29T04:23:38.621Z,63.13
2022-08-29T04:24:38.613Z,64.41
2022-08-29T04:25:38.602Z,62.46
2022-08-29T04:26:38.587Z,64.32
2022-08-29T04:27:39.620Z,62.00
2022-08-29T04:28:38.586Z,62.13
2022-08-29T04:29:38.574Z,65.49
2022-08-29T04:30:38.571Z,61.74
2022-08-29T04:31:38.672Z,62.89
2022-08-29T04:32:38.580Z,61.69
2022-08-29T04:33:38.551Z,62.47
2022-08-29T04:34:38.554Z,61.68
2022-08-29T04:35:38.528Z,60.77
2022-08-29T04:36:38.522Z,61.08
2022-08-29T04:37:38.542Z,63.90
2022-08-29T04:38:38.508Z,65.14
2022-08-29T04:39:38.494Z,65.72
2022-08-29T04:40:38.545Z,64.00
2022-08-29T04:41:38.480Z,62.82
2022-08-29T04:42:38.504Z,63.11
2022-08-29T04:43:38.470Z,65.30
2022-08-29T04:44:38.461Z,65.85
2022-08-29T04:45:38.449Z,59.68
2022-08-29T04:46:38.466Z,64.81
2022-08-29T04:47:38.462Z,64.84
2022-08-29T04:48:38.428Z,63.64
2022-08-29T04:49:38.418Z,64.13
2022-08-29T04:50:38.421Z,61.94
2022-08-29T04:51:38.407Z,64.15
2022-08-29T04:52:38.429Z,63.81
2022-08-29T04:53:38.396Z,61.24
2022-08-29T04:54:38.390Z,60.89
2022-08-29T04:55:38.380Z,59.96
2022-08-29T04:56:38.373Z,63.87
2022-08-29T04:57:38.389Z,59.54
2022-08-29T04:58:38.357Z,59.98
2022-08-29T04:59:38.345Z,63.98
2022-08-29T05:00:38.339Z,63.19
2022-08-29T05:01:38.371Z,61.21
2022-08-29T05:02:38.378Z,60.76
2022-08-29T05:03:38.312Z,62.97
2022-08-29T05:04:38.307Z,59.82
2022-08-29T05:05:38.307Z,59.25
2022-08-29T05:06:38.297Z,61.56
2022-08-29T05:07:38.517Z,61.12
2022-08-29T05:08:38.278Z,61.06
2022-08-29T05:09:38.274Z,55.56
2022-08-29T05:10:38.263Z,63.08
2022-08-29T05:11:38.258Z,62.46
2022-08-29T05:12:38.279Z,63.41
2022-08-29T05:13:38.248Z,59.86
2022-08-29T05:14:38.232Z,61.23
2022-08-29T05:15:38.243Z,63.15
2022-08-29T05:16:38.219Z,62.28
2022-08-29T05:17:38.236Z,60.88
2022-08-29T05:18:38.198Z,59.70
2022-08-29T05:19:38.195Z,60.55
2022-08-29T05:20:39.181Z,60.32
2022-08-29T05:21:38.166Z,62.16
2022-08-29T05:22:39.201Z,60.70
2022-08-29T05:23:38.155Z,59.44
2022-08-29T05:24:38.153Z,63.42
2022-08-29T05:25:38.143Z,60.13
2022-08-29T05:26:38.139Z,60.05
2022-08-29T05:27:38.156Z,58.54
2022-08-29T05:28:38.118Z,61.20
2022-08-29T05:29:38.114Z,61.67
2022-08-29T05:30:38.105Z,61.16
2022-08-29T05:31:38.164Z,60.85
2022-08-29T05:32:38.120Z,61.31
2022-08-29T05:33:38.097Z,62.17
2022-08-29T05:34:38.072Z,61.99
2022-08-29T05:35:38.064Z,62.19
2022-08-29T05:36:38.063Z,60.60
2022-08-29T05:37:38.070Z,62.64
2022-08-29T05:38:38.035Z,61.49
2022-08-29T05:39:38.030Z,61.76
2022-08-29T05:40:38.071Z,58.65
2022-08-29T05:41:38.616Z,61.03
2022-08-29T05:42:38.042Z,60.12
2022-08-29T05:43:38.007Z,61.53
2022-08-29T05:44:37.991Z,63.85
2022-08-29T05:45:37.983Z,60.01
2022-08-29T05:46:37.995Z,60.12
2022-08-29T05:47:38.024Z,62.73
2022-08-29T05:48:37.984Z,62.63
2022-08-29T05:49:37.964Z,62.30
2022-08-29T05:50:37.951Z,61.34
2022-08-29T05:51:39.864Z,57.17
2022-08-29T05:52:38.937Z,60.39
2022-08-29T05:53:37.954Z,62.05
2022-08-29T05:54:37.925Z,55.96
2022-08-29T05:55:37.920Z,58.01
2022-08-29T05:56:37.912Z,62.70
2022-08-29T05:57:37.896Z,57.47
2022-08-29T05:58:37.915Z,55.17
2022-08-29T05:59:37.891Z,58.39
2022-08-29T06:00:37.883Z,60.05
2022-08-29T06:01:37.868Z,58.59
2022-08-29T06:02:37.966Z,58.23
2022-08-29T06:03:37.962Z,58.59
2022-08-29T06:04:37.848Z,56.86
2022-08-29T06:05:37.846Z,62.89
2022-08-29T06:06:37.838Z,58.39
2022-08-29T06:07:37.871Z,59.27
2022-08-29T06:08:37.843Z,58.15
2022-08-29T06:09:37.816Z,60.85
2022-08-29T06:10:37.815Z,56.36
2022-08-29T06:11:37.803Z,58.53
2022-08-29T06:12:37.791Z,59.88
2022-08-29T06:13:37.812Z,60.53
2022-08-29T06:14:37.779Z,59.79
2022-08-29T06:15:37.858Z,50.51
2022-08-29T06:16:37.773Z,59.13
2022-08-29T06:17:37.754Z,58.46
2022-08-29T06:18:37.774Z,56.70
2022-08-29T06:19:37.748Z,58.89
2022-08-29T06:20:37.730Z,59.93
2022-08-29T06:21:37.734Z,60.93
2022-08-29T06:22:40.326Z,57.52
2022-08-29T06:23:38.744Z,57.51
2022-08-29T06:24:37.700Z,56.55
2022-08-29T06:25:39.971Z,62.24
2022-08-29T06:26:38.703Z,51.75
2022-08-29T06:27:37.695Z,60.85
2022-08-29T06:28:37.709Z,61.74
2022-08-29T06:29:43.020Z,61.42
2022-08-29T06:30:38.726Z,59.43
2022-08-29T06:31:37.671Z,51.78
2022-08-29T06:32:37.662Z,58.00
2022-08-29T06:33:37.675Z,61.30
2022-08-29T06:34:37.643Z,59.89
2022-08-29T06:35:37.633Z,59.07
2022-08-29T06:36:37.625Z,54.87
2022-08-29T06:37:37.615Z,62.15
2022-08-29T06:38:37.647Z,54.14
2022-08-29T06:39:37.606Z,53.36
2022-08-29T06:40:37.661Z,59.93
2022-08-29T06:41:37.589Z,59.23
2022-08-29T06:42:37.589Z,55.78
2022-08-29T06:43:37.626Z,58.71
2022-08-29T06:44:40.257Z,62.19
2022-08-29T06:45:38.567Z,60.47
2022-08-29T06:46:37.625Z,53.86
2022-08-29T06:47:37.556Z,60.62
2022-08-29T06:48:37.572Z,57.99
2022-08-29T06:49:37.535Z,56.23
2022-08-29T06:50:38.335Z,56.60
2022-08-29T06:51:37.538Z,62.85
2022-08-29T06:52:37.525Z,59.21
2022-08-29T06:53:37.879Z,57.51
2022-08-29T06:54:37.508Z,60.61
2022-08-29T06:55:37.496Z,58.64
2022-08-29T06:56:37.510Z,63.39
2022-08-29T06:57:37.486Z,61.20
2022-08-29T06:58:37.513Z,59.00
2022-08-29T06:59:37.478Z,49.31
2022-08-29T07:00:37.469Z,55.93
2022-08-29T07:01:37.574Z,57.07
2022-08-29T07:02:37.525Z,57.95
2022-08-29T07:03:37.443Z,62.26
2022-08-29T07:04:37.463Z,56.30
2022-08-29T07:05:37.431Z,60.46
2022-08-29T07:06:37.428Z,61.75
2022-08-29T07:07:37.425Z,57.98
2022-08-29T07:08:42.208Z,54.03
2022-08-29T07:09:39.403Z,57.55
2022-08-29T07:10:37.397Z,60.11
2022-08-29T07:11:40.966Z,54.16
2022-08-29T07:12:38.382Z,58.11
2022-08-29T07:13:37.412Z,60.82
2022-08-29T07:14:37.370Z,58.73
2022-08-29T07:15:37.373Z,53.26
2022-08-29T07:16:37.353Z,60.14
2022-08-29T07:17:37.351Z,60.44
2022-08-29T07:18:37.344Z,45.37
2022-08-29T07:19:37.367Z,60.11
2022-08-29T07:20:37.325Z,56.21
2022-08-29T07:21:37.321Z,60.02
2022-08-29T07:22:37.315Z,52.25
2022-08-29T07:23:37.311Z,59.62
2022-08-29T07:24:37.321Z,60.78
2022-08-29T07:25:37.295Z,55.65
2022-08-29T07:26:37.282Z,58.87
2022-08-29T07:27:37.278Z,59.80
2022-08-29T07:28:38.446Z,59.05
2022-08-29T07:29:37.293Z,53.13
2022-08-29T07:30:37.340Z,56.48
2022-08-29T07:31:37.255Z,56.84
2022-08-29T07:32:37.250Z,51.45
2022-08-29T07:33:37.243Z,58.71
2022-08-29T07:34:37.263Z,54.93
2022-08-29T07:35:37.231Z,59.79
2022-08-29T07:36:37.226Z,58.33
2022-08-29T07:37:37.215Z,56.78
2022-08-29T07:38:37.207Z,59.35
2022-08-29T07:39:37.223Z,56.23
2022-08-29T07:40:37.228Z,60.91
2022-08-29T07:41:37.211Z,56.41
2022-08-29T07:42:37.172Z,59.47
2022-08-29T07:43:38.180Z,60.34
2022-08-29T07:44:37.190Z,61.19
2022-08-29T07:45:37.203Z,60.59
2022-08-29T07:46:37.157Z,54.40
2022-08-29T07:47:37.147Z,59.63
2022-08-29T07:48:37.173Z,58.12
2022-08-29T07:49:41.361Z,58.24
2022-08-29T07:50:38.134Z,56.46
2022-08-29T07:51:37.116Z,59.51
2022-08-29T07:52:38.116Z,62.53
2022-08-29T07:53:37.134Z,57.77
2022-08-29T07:54:37.100Z,57.07
2022-08-29T07:55:37.092Z,58.29
2022-08-29T07:56:38.060Z,58.39
2022-08-29T07:57:39.960Z,61.38
2022-08-29T07:58:37.105Z,55.05
2022-08-29T07:59:37.064Z,58.05
2022-08-29T08:00:37.102Z,52.84
2022-08-29T08:01:37.106Z,54.61
2022-08-29T08:02:37.116Z,55.13
2022-08-29T08:03:37.070Z,58.77
2022-08-29T08:04:37.046Z,61.18
2022-08-29T08:05:37.025Z,55.75
2022-08-29T08:06:37.021Z,57.54
2022-08-29T08:07:40.135Z,57.46
2022-08-29T08:08:37.010Z,58.34
2022-08-29T08:09:37.023Z,55.89
2022-08-29T08:10:36.987Z,60.53
2022-08-29T08:11:37.031Z,61.49
2022-08-29T08:12:36.978Z,58.58
2022-08-29T08:13:36.968Z,60.58
2022-08-29T08:14:36.989Z,63.10
2022-08-29T08:15:36.963Z,62.93
2022-08-29T08:16:37.019Z,58.51
2022-08-29T08:17:39.826Z,55.46
2022-08-29T08:18:37.936Z,60.05
2022-08-29T08:19:36.954Z,61.71
2022-08-29T08:20:36.926Z,62.50
2022-08-29T08:21:36.919Z,62.26
2022-08-29T08:22:37.909Z,60.70
2022-08-29T08:23:36.897Z,61.94
2022-08-29T08:24:36.917Z,57.61
2022-08-29T08:25:36.886Z,60.40
2022-08-29T08:26:36.884Z,63.23
2022-08-29T08:27:41.056Z,64.66
2022-08-29T08:28:38.864Z,60.20
2022-08-29T08:29:36.905Z,57.87
2022-08-29T08:30:36.864Z,62.27
2022-08-29T08:31:36.901Z,59.16
2022-08-29T08:32:36.834Z,61.27
2022-08-29T08:33:36.827Z,60.27
2022-08-29T08:34:36.840Z,60.01
2022-08-29T08:35:36.810Z,61.16
2022-08-29T08:36:40.782Z,61.55
2022-08-29T08:37:37.858Z,62.42
2022-08-29T08:38:36.785Z,60.26
2022-08-29T08:39:36.812Z,60.11
2022-08-29T08:40:36.925Z,57.82
2022-08-29T08:41:37.758Z,63.71
2022-08-29T08:42:37.759Z,61.57
2022-08-29T08:43:36.757Z,58.46
2022-08-29T08:44:36.775Z,65.53
2022-08-29T08:45:36.785Z,63.55
2022-08-29T08:46:36.736Z,60.41
2022-08-29T08:47:36.729Z,57.48
2022-08-29T08:48:36.713Z,58.21
2022-08-29T08:49:36.747Z,62.41
2022-08-29T08:50:36.708Z,60.92
2022-08-29T08:51:36.698Z,60.01
2022-08-29T08:52:36.697Z,57.21
2022-08-29T08:53:36.686Z,59.94
2022-08-29T08:54:36.711Z,63.00
2022-08-29T08:55:36.675Z,58.85
2022-08-29T08:56:36.665Z,61.83
2022-08-29T08:57:36.656Z,60.12
2022-08-29T08:58:36.645Z,61.31
2022-08-29T08:59:36.685Z,60.32
2022-08-29T09:00:36.634Z,62.11
2022-08-29T09:01:36.639Z,60.34
2022-08-29T09:02:36.733Z,62.41
2022-08-29T09:03:36.648Z,56.42
2022-08-29T09:04:36.606Z,57.15
2022-08-29T09:05:36.596Z,54.20
2022-08-29T09:06:36.593Z,63.73
2022-08-29T09:07:36.594Z,59.43
2022-08-29T09:08:36.580Z,61.40
2022-08-29T09:09:36.596Z,59.84
2022-08-29T09:10:36.567Z,62.05
2022-08-29T09:11:36.563Z,59.94
2022-08-29T09:12:36.557Z,61.05
2022-08-29T09:13:36.540Z,57.95
2022-08-29T09:14:36.565Z,59.47
2022-08-29T09:15:36.527Z,57.32
2022-08-29T09:16:36.562Z,58.50
2022-08-29T09:17:36.623Z,64.47
2022-08-29T09:18:36.518Z,54.96
2022-08-29T09:19:36.528Z,59.60
2022-08-29T09:20:36.493Z,59.94
2022-08-29T09:21:40.900Z,61.71
2022-08-29T09:22:37.477Z,63.20
2022-08-29T09:23:36.470Z,59.70
2022-08-29T09:24:36.493Z,56.50
2022-08-29T09:25:36.511Z,59.47
2022-08-29T09:26:36.447Z,59.09
2022-08-29T09:27:36.437Z,56.37
2022-08-29T09:28:36.431Z,61.03
2022-08-29T09:29:36.449Z,63.05
2022-08-29T09:30:36.416Z,59.66
2022-08-29T09:31:36.461Z,61.85
2022-08-29T09:32:36.403Z,59.70
2022-08-29T09:33:36.397Z,59.54
2022-08-29T09:34:57.011Z,62.13
2022-08-29T09:35:38.379Z,59.65
2022-08-29T09:36:36.371Z,58.78
2022-08-29T09:37:36.369Z,60.25
2022-08-29T09:38:36.354Z,59.98
2022-08-29T09:39:36.369Z,57.82
2022-08-29T09:40:36.394Z,55.62
2022-08-29T09:41:36.340Z,55.46
2022-08-29T09:42:36.323Z,60.99
2022-08-29T09:43:36.318Z,57.34
2022-08-29T09:44:36.335Z,58.43
2022-08-29T09:45:36.344Z,59.96
2022-08-29T09:46:36.301Z,57.79
2022-08-29T09:47:36.287Z,56.13
2022-08-29T09:48:36.281Z,59.23
2022-08-29T09:49:36.302Z,52.74
2022-08-29T09:50:36.265Z,54.89
2022-08-29T09:51:36.268Z,62.11
2022-08-29T09:52:36.253Z,62.32
2022-08-29T09:53:36.245Z,56.99
2022-08-29T09:54:36.270Z,57.78
2022-08-29T09:55:36.227Z,58.79
2022-08-29T09:56:36.220Z,54.69
2022-08-29T09:57:36.210Z,63.06
2022-08-29T09:58:39.773Z,58.88
2022-08-29T09:59:37.223Z,57.94
2022-08-29T10:00:36.188Z,56.78
2022-08-29T10:01:36.862Z,55.54
2022-08-29T10:02:36.262Z,50.40
2022-08-29T10:03:36.173Z,55.65
2022-08-29T10:04:36.191Z,55.51
2022-08-29T10:05:36.159Z,57.23
2022-08-29T10:06:39.993Z,56.97
2022-08-29T10:07:37.675Z,59.02
2022-08-29T10:08:36.138Z,59.73
2022-08-29T10:09:36.139Z,56.86
2022-08-29T10:10:37.120Z,59.88
2022-08-29T10:11:36.111Z,60.03
2022-08-29T10:12:36.109Z,60.38
2022-08-29T10:13:36.097Z,59.56
2022-08-29T10:14:36.116Z,54.57
2022-08-29T10:15:51.689Z,58.27
2022-08-29T10:16:38.210Z,61.57
2022-08-29T10:17:36.062Z,63.33
2022-08-29T10:18:36.057Z,58.15
2022-08-29T10:19:36.083Z,57.69
2022-08-29T10:20:36.041Z,63.06
2022-08-29T10:21:36.021Z,60.18
2022-08-29T10:22:37.031Z,60.64
2022-08-29T10:23:36.028Z,56.92
2022-08-29T10:24:36.028Z,59.32
2022-08-29T10:25:36.029Z,59.31
2022-08-29T10:26:35.992Z,60.27
2022-08-29T10:27:35.990Z,53.65
2022-08-29T10:28:35.971Z,57.51
2022-08-29T10:29:36.972Z,57.49
2022-08-29T10:30:36.400Z,59.14
2022-08-29T10:31:36.052Z,56.42
2022-08-29T10:32:35.944Z,54.25
2022-08-29T10:33:35.940Z,57.28
2022-08-29T10:34:35.928Z,57.49
2022-08-29T10:35:35.948Z,60.76
2022-08-29T10:36:35.921Z,60.33
2022-08-29T10:37:35.912Z,60.09
2022-08-29T10:38:35.903Z,60.44
2022-08-29T10:39:35.903Z,51.69
2022-08-29T10:40:35.996Z,58.00
2022-08-29T10:41:35.885Z,56.85
2022-08-29T10:42:35.877Z,58.11
2022-08-29T10:43:35.865Z,56.20
2022-08-29T10:44:35.866Z,58.76
2022-08-29T10:45:35.928Z,57.00
2022-08-29T10:46:35.850Z,59.48
2022-08-29T10:47:35.840Z,59.40
2022-08-29T10:48:35.830Z,59.62
2022-08-29T10:49:35.827Z,61.58
2022-08-29T10:50:45.041Z,56.73
2022-08-29T10:51:37.809Z,57.48
2022-08-29T10:52:35.805Z,54.00
2022-08-29T10:53:35.798Z,59.13
2022-08-29T10:54:35.793Z,58.86
2022-08-29T10:55:35.813Z,60.58
2022-08-29T10:56:35.773Z,57.39
2022-08-29T10:57:35.764Z,56.97
2022-08-29T10:58:35.761Z,59.52
2022-08-29T10:59:35.751Z,62.46
2022-08-29T11:00:35.798Z,52.07
2022-08-29T11:01:35.858Z,57.13
2022-08-29T11:02:35.728Z,55.38
2022-08-29T11:03:35.745Z,61.56
2022-08-29T11:04:35.715Z,58.83
2022-08-29T11:05:35.740Z,56.04
2022-08-29T11:07:35.694Z,53.28
2022-08-29T11:08:35.685Z,56.60
2022-08-29T11:09:35.675Z,51.22
2022-08-29T11:10:35.703Z,55.42
2022-08-29T11:11:35.659Z,58.91
2022-08-29T11:12:35.658Z,59.30
2022-08-29T11:13:35.695Z,55.66
2022-08-29T11:14:35.659Z,55.36
2022-08-29T11:15:35.657Z,57.77
2022-08-29T11:16:35.682Z,57.65
2022-08-29T11:17:35.622Z,61.29
2022-08-29T11:18:35.609Z,60.99
2022-08-29T11:19:35.607Z,55.69
2022-08-29T11:20:35.627Z,55.16
2022-08-29T11:21:35.589Z,59.33
2022-08-29T11:22:35.592Z,58.23
2022-08-29T11:23:35.575Z,58.35
2022-08-29T11:24:37.348Z,60.36
2022-08-29T11:25:35.585Z,58.30
2022-08-29T11:26:35.550Z,57.73
2022-08-29T11:27:35.545Z,56.03
2022-08-29T11:28:35.592Z,57.73
2022-08-29T11:29:35.524Z,60.28
2022-08-29T11:30:39.751Z,56.66
2022-08-29T11:31:37.549Z,56.66
2022-08-29T11:32:36.263Z,60.59
2022-08-29T11:33:35.497Z,57.98
2022-08-29T11:34:35.490Z,60.18
2022-08-29T11:35:35.522Z,58.99
2022-08-29T11:36:35.473Z,56.23
2022-08-29T11:37:35.468Z,58.55
2022-08-29T11:38:35.449Z,61.25
2022-08-29T11:39:36.449Z,61.23
2022-08-29T11:41:37.486Z,59.21
2022-08-29T11:42:51.199Z,56.53
2022-08-29T11:43:37.420Z,58.00
2022-08-29T11:44:35.415Z,58.41
2022-08-29T11:45:36.839Z,56.82
2022-08-29T11:46:35.451Z,62.79
2022-08-29T11:47:40.750Z,59.37
2022-08-29T11:48:36.374Z,55.36
2022-08-29T11:49:35.368Z,60.62
2022-08-29T11:50:35.366Z,53.34
2022-08-29T11:51:36.228Z,59.41
2022-08-29T11:52:36.351Z,61.02
2022-08-29T11:53:35.340Z,58.13
2022-08-29T11:54:35.576Z,56.36
2022-08-29T11:55:35.325Z,54.69
2022-08-29T11:56:35.339Z,60.78
2022-08-29T11:57:35.309Z,61.58
2022-08-29T11:58:35.303Z,60.95
2022-08-29T11:59:35.292Z,58.97
2022-08-29T12:00:35.284Z,55.98
2022-08-29T12:01:35.304Z,58.21
2022-08-29T12:02:35.265Z,59.24
2022-08-29T12:03:35.690Z,52.34
2022-08-29T12:04:35.288Z,55.24
2022-08-29T12:05:35.250Z,53.24
2022-08-29T12:06:35.265Z,53.32
2022-08-29T12:07:35.233Z,58.50
2022-08-29T12:08:37.562Z,57.11
2022-08-29T12:09:36.222Z,56.04
2022-08-29T12:10:35.217Z,56.44
2022-08-29T12:11:35.228Z,56.23
2022-08-29T12:12:35.190Z,60.68
2022-08-29T12:13:35.188Z,60.91
2022-08-29T12:14:37.902Z,58.76
2022-08-29T12:15:36.170Z,56.99
2022-08-29T12:16:35.217Z,60.49
2022-08-29T12:17:58.188Z,58.65
2022-08-29T12:18:37.136Z,56.25
2022-08-29T12:19:36.141Z,58.35
2022-08-29T12:20:35.131Z,57.07
2022-08-29T12:21:35.147Z,59.36
2022-08-29T12:22:35.148Z,59.54
2022-08-29T12:23:35.748Z,54.87
2022-08-29T12:24:35.100Z,57.75
2022-08-29T12:25:35.093Z,52.95
2022-08-29T12:26:35.109Z,54.91
2022-08-29T12:27:35.079Z,57.04
2022-08-29T12:28:35.071Z,58.12
2022-08-29T12:29:43.657Z,57.14
2022-08-29T12:30:36.055Z,57.03
2022-08-29T12:31:35.141Z,58.53
2022-08-29T12:32:35.120Z,59.88
2022-08-29T12:33:35.037Z,58.09
2022-08-29T12:34:35.026Z,57.11
2022-08-29T12:35:35.014Z,58.84
2022-08-29T12:36:35.033Z,62.58
2022-08-29T12:37:34.999Z,61.13
2022-08-29T12:38:38.786Z,59.18
2022-08-29T12:39:35.984Z,54.74
2022-08-29T12:40:35.020Z,50.14
2022-08-29T12:41:36.003Z,60.64
2022-08-29T12:42:34.963Z,60.92
2022-08-29T12:43:34.959Z,57.85
2022-08-29T12:44:34.950Z,60.68
2022-08-29T12:45:34.942Z,62.10
2022-08-29T12:46:35.016Z,60.13
2022-08-29T12:47:34.929Z,62.71
2022-08-29T12:48:34.943Z,59.07
2022-08-29T12:49:34.914Z,59.14
2022-08-29T12:50:34.905Z,57.79
2022-08-29T12:51:34.898Z,59.80
2022-08-29T12:52:34.915Z,59.78
2022-08-29T12:53:34.896Z,61.63
2022-08-29T12:54:34.872Z,56.16